sensor_id;sensor_type;location;lat;lon;timestamp;temperature;humidity
9658;DHT22;4867;48.112;11.622;2024-03-06T00:01:47;6.40;99.90
9658;DHT22;4867;48.112;11.622;2024-03-06T00:04:15;6.30;99.90
9658;DHT22;4867;48.112;11.622;2024-03-06T00:06:46;6.30;99.90
9658;DHT22;4867;48.112;11.622;2024-03-06T00:09:15;6.30;99.90
9658;DHT22;4867;48.112;11.622;2024-03-06T00:11:47;6.30;99.90
9658;DHT22;4867;48.112;11.622;2024-03-06T00:14:15;6.30;99.90
9658;DHT22;4867;48.112;11.622;2024-03-06T00:16:57;6.40;99.90
9658;DHT22;4867;48.112;11.622;2024-03-06T00:19:25;6.50;99.90
9658;DHT22;4867;48.112;11.622;2024-03-06T00:21:55;6.40;99.90
9658;DHT22;4867;48.112;11.622;2024-03-06T00:24:26;6.40;99.90
9658;DHT22;4867;48.112;11.622;2024-03-06T00:26:59;6.40;99.90
9658;DHT22;4867;48.112;11.622;2024-03-06T00:29:27;6.40;99.90
9658;DHT22;4867;48.112;11.622;2024-03-06T00:31:59;6.30;99.90
9658;DHT22;4867;48.112;11.622;2024-03-06T00:34:28;6.30;99.90
9658;DHT22;4867;48.112;11.622;2024-03-06T00:36:57;6.30;99.90
9658;DHT22;4867;48.112;11.622;2024-03-06T00:39:30;6.30;99.90
9658;DHT22;4867;48.112;11.622;2024-03-06T00:41:58;6.30;99.90
9658;DHT22;4867;48.112;11.622;2024-03-06T00:44:25;6.40;99.90
9658;DHT22;4867;48.112;11.622;2024-03-06T00:46:55;6.30;99.90
9658;DHT22;4867;48.112;11.622;2024-03-06T00:49:26;6.30;99.90
9658;DHT22;4867;48.112;11.622;2024-03-06T00:51:54;6.30;99.90
9658;DHT22;4867;48.112;11.622;2024-03-06T00:54:21;6.30;99.90
9658;DHT22;4867;48.112;11.622;2024-03-06T00:56:48;6.20;99.90
9658;DHT22;4867;48.112;11.622;2024-03-06T00:59:16;6.20;99.90
9658;DHT22;4867;48.112;11.622;2024-03-06T01:01:43;6.10;99.90
9658;DHT22;4867;48.112;11.622;2024-03-06T01:04:11;6.20;99.90
9658;DHT22;4867;48.112;11.622;2024-03-06T01:06:39;6.30;99.90
9658;DHT22;4867;48.112;11.622;2024-03-06T01:09:07;6.30;99.90
9658;DHT22;4867;48.112;11.622;2024-03-06T01:11:35;6.30;99.90
9658;DHT22;4867;48.112;11.622;2024-03-06T01:14:02;6.40;99.90
9658;DHT22;4867;48.112;11.622;2024-03-06T01:16:31;6.40;99.90
9658;DHT22;4867;48.112;11.622;2024-03-06T01:18:58;6.30;99.90
9658;DHT22;4867;48.112;11.622;2024-03-06T01:21:26;6.40;99.90
9658;DHT22;4867;48.112;11.622;2024-03-06T01:23:53;6.30;99.90
9658;DHT22;4867;48.112;11.622;2024-03-06T01:26:21;6.30;99.90
9658;DHT22;4867;48.112;11.622;2024-03-06T01:28:49;6.40;99.90
9658;DHT22;4867;48.112;11.622;2024-03-06T01:31:16;6.30;99.90
9658;DHT22;4867;48.112;11.622;2024-03-06T01:33:44;6.30;99.90
9658;DHT22;4867;48.112;11.622;2024-03-06T01:36:11;6.20;99.90
9658;DHT22;4867;48.112;11.622;2024-03-06T01:38:39;6.20;99.90
9658;DHT22;4867;48.112;11.622;2024-03-06T01:41:06;6.20;99.90
9658;DHT22;4867;48.112;11.622;2024-03-06T01:43:37;6.20;99.90
9658;DHT22;4867;48.112;11.622;2024-03-06T01:46:08;6.10;99.90
9658;DHT22;4867;48.112;11.622;2024-03-06T01:48:37;6.20;99.90
9658;DHT22;4867;48.112;11.622;2024-03-06T01:51:05;6.30;99.90
9658;DHT22;4867;48.112;11.622;2024-03-06T01:53:35;6.40;99.90
9658;DHT22;4867;48.112;11.622;2024-03-06T01:56:07;6.40;99.90
9658;DHT22;4867;48.112;11.622;2024-03-06T01:58:39;6.40;99.90
9658;DHT22;4867;48.112;11.622;2024-03-06T02:01:08;6.50;99.90
9658;DHT22;4867;48.112;11.622;2024-03-06T02:03:36;6.50;99.90
9658;DHT22;4867;48.112;11.622;2024-03-06T02:06:05;6.40;99.90
9658;DHT22;4867;48.112;11.622;2024-03-06T02:08:33;6.40;99.90
9658;DHT22;4867;48.112;11.622;2024-03-06T02:11:00;6.40;99.90
9658;DHT22;4867;48.112;11.622;2024-03-06T02:13:31;6.40;99.90
9658;DHT22;4867;48.112;11.622;2024-03-06T02:15:58;6.40;99.90
9658;DHT22;4867;48.112;11.622;2024-03-06T02:18:25;6.50;99.90
9658;DHT22;4867;48.112;11.622;2024-03-06T02:20:54;6.50;99.90
9658;DHT22;4867;48.112;11.622;2024-03-06T02:23:21;6.50;99.90
9658;DHT22;4867;48.112;11.622;2024-03-06T02:25:51;6.40;99.90
9658;DHT22;4867;48.112;11.622;2024-03-06T02:28:19;6.40;99.90
9658;DHT22;4867;48.112;11.622;2024-03-06T02:30:54;6.40;99.90
9658;DHT22;4867;48.112;11.622;2024-03-06T02:33:22;6.40;99.90
9658;DHT22;4867;48.112;11.622;2024-03-06T02:36:05;6.40;99.90
9658;DHT22;4867;48.112;11.622;2024-03-06T02:39:02;6.40;99.90
9658;DHT22;4867;48.112;11.622;2024-03-06T02:41:39;6.50;99.90
9658;DHT22;4867;48.112;11.622;2024-03-06T02:44:15;6.50;99.90
9658;DHT22;4867;48.112;11.622;2024-03-06T02:46:49;6.30;99.90
9658;DHT22;4867;48.112;11.622;2024-03-06T02:49:30;6.10;99.90
9658;DHT22;4867;48.112;11.622;2024-03-06T02:51:58;6.10;99.90
9658;DHT22;4867;48.112;11.622;2024-03-06T02:54:30;6.00;99.90
9658;DHT22;4867;48.112;11.622;2024-03-06T02:57:05;6.00;99.90
9658;DHT22;4867;48.112;11.622;2024-03-06T02:59:33;5.90;99.90
9658;DHT22;4867;48.112;11.622;2024-03-06T03:02:06;5.80;99.90
9658;DHT22;4867;48.112;11.622;2024-03-06T03:04:42;5.80;99.90
9658;DHT22;4867;48.112;11.622;2024-03-06T03:07:15;5.70;99.90
9658;DHT22;4867;48.112;11.622;2024-03-06T03:09:43;5.70;99.90
9658;DHT22;4867;48.112;11.622;2024-03-06T03:12:11;5.70;99.90
9658;DHT22;4867;48.112;11.622;2024-03-06T03:14:48;5.60;99.90
9658;DHT22;4867;48.112;11.622;2024-03-06T03:17:29;5.60;99.90
9658;DHT22;4867;48.112;11.622;2024-03-06T03:19:59;5.70;99.90
9658;DHT22;4867;48.112;11.622;2024-03-06T03:22:42;5.60;99.90
9658;DHT22;4867;48.112;11.622;2024-03-06T03:25:18;5.50;99.90
9658;DHT22;4867;48.112;11.622;2024-03-06T03:27:47;5.50;99.90
9658;DHT22;4867;48.112;11.622;2024-03-06T03:30:14;5.50;99.90
9658;DHT22;4867;48.112;11.622;2024-03-06T03:32:43;5.40;99.90
9658;DHT22;4867;48.112;11.622;2024-03-06T03:35:17;5.30;99.90
9658;DHT22;4867;48.112;11.622;2024-03-06T03:37:54;5.30;99.90
9658;DHT22;4867;48.112;11.622;2024-03-06T03:40:26;5.30;99.90
9658;DHT22;4867;48.112;11.622;2024-03-06T03:42:57;5.20;99.90
9658;DHT22;4867;48.112;11.622;2024-03-06T03:45:38;5.20;99.90
9658;DHT22;4867;48.112;11.622;2024-03-06T03:48:10;5.10;99.90
9658;DHT22;4867;48.112;11.622;2024-03-06T03:50:52;5.10;99.90
9658;DHT22;4867;48.112;11.622;2024-03-06T03:53:28;5.20;99.90
9658;DHT22;4867;48.112;11.622;2024-03-06T03:56:00;5.20;99.90
9658;DHT22;4867;48.112;11.622;2024-03-06T03:58:35;5.20;99.90
9658;DHT22;4867;48.112;11.622;2024-03-06T04:01:04;5.20;99.90
9658;DHT22;4867;48.112;11.622;2024-03-06T04:03:34;5.30;99.90
9658;DHT22;4867;48.112;11.622;2024-03-06T04:06:06;5.20;99.90
9658;DHT22;4867;48.112;11.622;2024-03-06T04:08:40;5.20;99.90
9658;DHT22;4867;48.112;11.622;2024-03-06T04:11:09;5.10;99.90
9658;DHT22;4867;48.112;11.622;2024-03-06T04:13:38;5.10;99.90
9658;DHT22;4867;48.112;11.622;2024-03-06T04:16:08;5.10;99.90
9658;DHT22;4867;48.112;11.622;2024-03-06T04:18:38;5.00;99.90
9658;DHT22;4867;48.112;11.622;2024-03-06T04:21:09;5.00;99.90
9658;DHT22;4867;48.112;11.622;2024-03-06T04:23:39;5.00;99.90
9658;DHT22;4867;48.112;11.622;2024-03-06T04:26:10;5.00;99.90
9658;DHT22;4867;48.112;11.622;2024-03-06T04:28:39;5.00;99.90
9658;DHT22;4867;48.112;11.622;2024-03-06T04:31:08;4.90;99.90
9658;DHT22;4867;48.112;11.622;2024-03-06T04:33:37;4.90;99.90
9658;DHT22;4867;48.112;11.622;2024-03-06T04:36:18;4.90;99.90
9658;DHT22;4867;48.112;11.622;2024-03-06T04:38:47;4.80;99.90
9658;DHT22;4867;48.112;11.622;2024-03-06T04:41:18;4.80;99.90
9658;DHT22;4867;48.112;11.622;2024-03-06T04:43:48;4.80;99.90
9658;DHT22;4867;48.112;11.622;2024-03-06T04:46:21;4.90;99.90
9658;DHT22;4867;48.112;11.622;2024-03-06T04:48:51;4.90;99.90
9658;DHT22;4867;48.112;11.622;2024-03-06T04:51:21;4.90;99.90
9658;DHT22;4867;48.112;11.622;2024-03-06T04:53:52;4.90;99.90
9658;DHT22;4867;48.112;11.622;2024-03-06T04:56:26;4.90;99.90
9658;DHT22;4867;48.112;11.622;2024-03-06T04:58:53;4.90;99.90
9658;DHT22;4867;48.112;11.622;2024-03-06T05:01:23;4.90;99.90
9658;DHT22;4867;48.112;11.622;2024-03-06T05:03:51;4.90;99.90
9658;DHT22;4867;48.112;11.622;2024-03-06T05:06:40;4.80;99.90
9658;DHT22;4867;48.112;11.622;2024-03-06T05:09:27;4.80;99.90
9658;DHT22;4867;48.112;11.622;2024-03-06T05:12:12;4.70;99.90
9658;DHT22;4867;48.112;11.622;2024-03-06T05:15:00;4.60;99.90
9658;DHT22;4867;48.112;11.622;2024-03-06T05:17:54;4.60;99.90
9658;DHT22;4867;48.112;11.622;2024-03-06T05:20:48;4.50;99.90
9658;DHT22;4867;48.112;11.622;2024-03-06T05:23:35;4.40;99.90
9658;DHT22;4867;48.112;11.622;2024-03-06T05:26:25;4.40;99.90
9658;DHT22;4867;48.112;11.622;2024-03-06T05:29:10;4.40;99.90
9658;DHT22;4867;48.112;11.622;2024-03-06T05:31:59;4.50;99.90
9658;DHT22;4867;48.112;11.622;2024-03-06T05:34:44;4.40;99.90
9658;DHT22;4867;48.112;11.622;2024-03-06T05:37:29;4.40;99.90
9658;DHT22;4867;48.112;11.622;2024-03-06T05:40:14;4.40;99.90
9658;DHT22;4867;48.112;11.622;2024-03-06T05:43:01;4.50;99.90
9658;DHT22;4867;48.112;11.622;2024-03-06T05:45:47;4.50;99.90
9658;DHT22;4867;48.112;11.622;2024-03-06T05:48:32;4.50;99.90
9658;DHT22;4867;48.112;11.622;2024-03-06T05:51:19;4.50;99.90
9658;DHT22;4867;48.112;11.622;2024-03-06T05:54:04;4.40;99.90
9658;DHT22;4867;48.112;11.622;2024-03-06T05:56:52;4.30;99.90
9658;DHT22;4867;48.112;11.622;2024-03-06T05:59:39;4.30;99.90
9658;DHT22;4867;48.112;11.622;2024-03-06T06:02:09;4.30;99.90
9658;DHT22;4867;48.112;11.622;2024-03-06T06:04:39;4.30;99.90
9658;DHT22;4867;48.112;11.622;2024-03-06T06:07:17;4.20;99.90
9658;DHT22;4867;48.112;11.622;2024-03-06T06:09:48;4.30;99.90
9658;DHT22;4867;48.112;11.622;2024-03-06T06:12:19;4.30;99.90
9658;DHT22;4867;48.112;11.622;2024-03-06T06:14:49;4.30;99.90
9658;DHT22;4867;48.112;11.622;2024-03-06T06:17:17;4.30;99.90
9658;DHT22;4867;48.112;11.622;2024-03-06T06:19:49;4.40;99.90
9658;DHT22;4867;48.112;11.622;2024-03-06T06:22:29;4.30;99.90
9658;DHT22;4867;48.112;11.622;2024-03-06T06:24:57;4.30;99.90
9658;DHT22;4867;48.112;11.622;2024-03-06T06:27:27;4.30;99.90
9658;DHT22;4867;48.112;11.622;2024-03-06T06:29:56;4.30;99.90
9658;DHT22;4867;48.112;11.622;2024-03-06T06:32:30;4.30;99.90
9658;DHT22;4867;48.112;11.622;2024-03-06T06:35:01;4.30;99.90
9658;DHT22;4867;48.112;11.622;2024-03-06T06:37:32;4.40;99.90
9658;DHT22;4867;48.112;11.622;2024-03-06T06:40:09;4.40;99.90
9658;DHT22;4867;48.112;11.622;2024-03-06T06:42:47;4.30;99.90
9658;DHT22;4867;48.112;11.622;2024-03-06T06:45:23;4.30;99.90
9658;DHT22;4867;48.112;11.622;2024-03-06T06:47:54;4.20;99.90
9658;DHT22;4867;48.112;11.622;2024-03-06T06:50:39;4.20;99.90
9658;DHT22;4867;48.112;11.622;2024-03-06T06:53:12;4.20;99.90
9658;DHT22;4867;48.112;11.622;2024-03-06T06:56:07;4.20;99.90
9658;DHT22;4867;48.112;11.622;2024-03-06T06:58:45;4.20;99.90
9658;DHT22;4867;48.112;11.622;2024-03-06T07:01:15;4.20;99.90
9658;DHT22;4867;48.112;11.622;2024-03-06T07:03:49;4.20;99.90
9658;DHT22;4867;48.112;11.622;2024-03-06T07:06:19;4.20;99.90
9658;DHT22;4867;48.112;11.622;2024-03-06T07:08:50;4.20;99.90
9658;DHT22;4867;48.112;11.622;2024-03-06T07:11:36;4.30;99.90
9658;DHT22;4867;48.112;11.622;2024-03-06T07:14:04;4.30;99.90
9658;DHT22;4867;48.112;11.622;2024-03-06T07:16:44;4.20;99.90
9658;DHT22;4867;48.112;11.622;2024-03-06T07:19:13;4.30;99.90
9658;DHT22;4867;48.112;11.622;2024-03-06T07:21:44;4.30;99.90
9658;DHT22;4867;48.112;11.622;2024-03-06T07:24:12;4.30;99.90
9658;DHT22;4867;48.112;11.622;2024-03-06T07:26:40;4.30;99.90
9658;DHT22;4867;48.112;11.622;2024-03-06T07:29:14;4.30;99.90
9658;DHT22;4867;48.112;11.622;2024-03-06T07:31:44;4.30;99.90
9658;DHT22;4867;48.112;11.622;2024-03-06T07:34:15;4.20;99.90
9658;DHT22;4867;48.112;11.622;2024-03-06T07:36:43;4.30;99.90
9658;DHT22;4867;48.112;11.622;2024-03-06T07:39:16;4.30;99.90
9658;DHT22;4867;48.112;11.622;2024-03-06T07:41:46;4.30;99.90
9658;DHT22;4867;48.112;11.622;2024-03-06T07:44:14;4.40;99.90
9658;DHT22;4867;48.112;11.622;2024-03-06T07:46:41;4.40;99.90
9658;DHT22;4867;48.112;11.622;2024-03-06T07:49:11;4.50;99.90
9658;DHT22;4867;48.112;11.622;2024-03-06T07:51:38;4.50;99.90
9658;DHT22;4867;48.112;11.622;2024-03-06T07:54:08;4.50;99.90
9658;DHT22;4867;48.112;11.622;2024-03-06T07:56:35;4.60;99.90
9658;DHT22;4867;48.112;11.622;2024-03-06T07:59:03;4.60;99.90
9658;DHT22;4867;48.112;11.622;2024-03-06T08:01:38;4.50;99.90
9658;DHT22;4867;48.112;11.622;2024-03-06T08:04:06;4.60;99.90
9658;DHT22;4867;48.112;11.622;2024-03-06T08:06:35;4.60;99.90
9658;DHT22;4867;48.112;11.622;2024-03-06T08:09:10;4.50;99.90
9658;DHT22;4867;48.112;11.622;2024-03-06T08:11:52;4.50;99.90
9658;DHT22;4867;48.112;11.622;2024-03-06T08:14:22;4.50;99.90
9658;DHT22;4867;48.112;11.622;2024-03-06T08:17:30;4.50;99.90
9658;DHT22;4867;48.112;11.622;2024-03-06T08:19:58;4.50;99.90
9658;DHT22;4867;48.112;11.622;2024-03-06T08:22:28;4.50;99.90
9658;DHT22;4867;48.112;11.622;2024-03-06T08:24:56;4.50;99.90
9658;DHT22;4867;48.112;11.622;2024-03-06T08:27:23;4.50;99.90
9658;DHT22;4867;48.112;11.622;2024-03-06T08:29:51;4.50;99.90
9658;DHT22;4867;48.112;11.622;2024-03-06T08:32:22;4.70;99.90
9658;DHT22;4867;48.112;11.622;2024-03-06T08:34:54;4.60;99.90
9658;DHT22;4867;48.112;11.622;2024-03-06T08:37:21;4.60;99.90
9658;DHT22;4867;48.112;11.622;2024-03-06T08:39:49;4.60;99.90
9658;DHT22;4867;48.112;11.622;2024-03-06T08:42:16;4.60;99.90
9658;DHT22;4867;48.112;11.622;2024-03-06T08:44:45;4.60;99.90
9658;DHT22;4867;48.112;11.622;2024-03-06T08:47:13;4.70;99.90
9658;DHT22;4867;48.112;11.622;2024-03-06T08:49:42;4.70;99.90
9658;DHT22;4867;48.112;11.622;2024-03-06T08:52:09;4.70;99.90
9658;DHT22;4867;48.112;11.622;2024-03-06T08:54:39;4.70;99.90
9658;DHT22;4867;48.112;11.622;2024-03-06T08:57:10;4.70;99.90
9658;DHT22;4867;48.112;11.622;2024-03-06T08:59:38;4.70;99.90
9658;DHT22;4867;48.112;11.622;2024-03-06T09:04:46;4.90;99.90
9658;DHT22;4867;48.112;11.622;2024-03-06T09:07:14;4.90;99.90
9658;DHT22;4867;48.112;11.622;2024-03-06T09:09:42;4.90;99.90
9658;DHT22;4867;48.112;11.622;2024-03-06T09:12:10;5.00;99.90
9658;DHT22;4867;48.112;11.622;2024-03-06T09:14:38;5.00;99.90
9658;DHT22;4867;48.112;11.622;2024-03-06T09:17:07;5.00;99.90
9658;DHT22;4867;48.112;11.622;2024-03-06T09:19:37;5.10;99.90
9658;DHT22;4867;48.112;11.622;2024-03-06T09:22:08;5.10;99.90
9658;DHT22;4867;48.112;11.622;2024-03-06T09:24:37;5.10;99.90
9658;DHT22;4867;48.112;11.622;2024-03-06T09:27:06;5.10;99.90
9658;DHT22;4867;48.112;11.622;2024-03-06T09:29:36;5.10;99.90
9658;DHT22;4867;48.112;11.622;2024-03-06T09:32:06;5.20;99.90
9658;DHT22;4867;48.112;11.622;2024-03-06T09:35:16;5.30;99.90
9658;DHT22;4867;48.112;11.622;2024-03-06T09:37:45;5.30;99.90
9658;DHT22;4867;48.112;11.622;2024-03-06T09:40:57;5.30;99.90
9658;DHT22;4867;48.112;11.622;2024-03-06T09:43:26;5.20;99.90
9658;DHT22;4867;48.112;11.622;2024-03-06T09:45:59;5.10;99.90
9658;DHT22;4867;48.112;11.622;2024-03-06T09:48:30;5.30;99.90
9658;DHT22;4867;48.112;11.622;2024-03-06T09:51:01;5.40;99.90
9658;DHT22;4867;48.112;11.622;2024-03-06T09:53:36;5.50;99.90
9658;DHT22;4867;48.112;11.622;2024-03-06T09:56:13;5.50;99.90
9658;DHT22;4867;48.112;11.622;2024-03-06T09:58:45;5.60;99.90
9658;DHT22;4867;48.112;11.622;2024-03-06T10:01:17;5.60;99.90
9658;DHT22;4867;48.112;11.622;2024-03-06T10:03:45;5.70;99.90
9658;DHT22;4867;48.112;11.622;2024-03-06T10:06:16;5.70;99.90
9658;DHT22;4867;48.112;11.622;2024-03-06T10:08:47;5.60;99.90
9658;DHT22;4867;48.112;11.622;2024-03-06T10:11:20;5.60;99.90
9658;DHT22;4867;48.112;11.622;2024-03-06T10:13:58;5.60;99.90
9658;DHT22;4867;48.112;11.622;2024-03-06T10:16:34;5.60;99.90
9658;DHT22;4867;48.112;11.622;2024-03-06T10:19:16;5.70;99.90
9658;DHT22;4867;48.112;11.622;2024-03-06T10:21:47;5.70;99.90
9658;DHT22;4867;48.112;11.622;2024-03-06T10:24:21;5.70;99.90
9658;DHT22;4867;48.112;11.622;2024-03-06T10:26:58;5.70;99.90
9658;DHT22;4867;48.112;11.622;2024-03-06T10:29:29;5.80;99.90
9658;DHT22;4867;48.112;11.622;2024-03-06T10:32:16;5.80;99.90
9658;DHT22;4867;48.112;11.622;2024-03-06T10:34:54;5.80;99.90
9658;DHT22;4867;48.112;11.622;2024-03-06T10:37:23;5.80;99.90
9658;DHT22;4867;48.112;11.622;2024-03-06T10:39:52;5.80;99.90
9658;DHT22;4867;48.112;11.622;2024-03-06T10:42:23;5.80;99.90
9658;DHT22;4867;48.112;11.622;2024-03-06T10:44:55;5.70;99.90
9658;DHT22;4867;48.112;11.622;2024-03-06T10:47:26;5.70;99.90
9658;DHT22;4867;48.112;11.622;2024-03-06T10:50:00;5.70;99.90
9658;DHT22;4867;48.112;11.622;2024-03-06T10:52:46;5.70;99.90
9658;DHT22;4867;48.112;11.622;2024-03-06T10:55:20;5.70;99.90
9658;DHT22;4867;48.112;11.622;2024-03-06T10:57:48;5.80;99.90
9658;DHT22;4867;48.112;11.622;2024-03-06T11:00:18;5.80;99.90
9658;DHT22;4867;48.112;11.622;2024-03-06T11:02:48;5.90;99.90
9658;DHT22;4867;48.112;11.622;2024-03-06T11:05:20;5.90;99.90
9658;DHT22;4867;48.112;11.622;2024-03-06T11:07:53;6.00;99.90
9658;DHT22;4867;48.112;11.622;2024-03-06T11:10:33;6.00;99.90
9658;DHT22;4867;48.112;11.622;2024-03-06T11:13:02;6.10;99.90
9658;DHT22;4867;48.112;11.622;2024-03-06T11:15:43;6.10;99.90
9658;DHT22;4867;48.112;11.622;2024-03-06T11:23:32;6.10;99.90
9658;DHT22;4867;48.112;11.622;2024-03-06T11:26:05;6.10;99.90
9658;DHT22;4867;48.112;11.622;2024-03-06T11:28:37;6.10;99.90
9658;DHT22;4867;48.112;11.622;2024-03-06T11:31:09;6.10;99.90
9658;DHT22;4867;48.112;11.622;2024-03-06T11:33:44;6.10;99.90
9658;DHT22;4867;48.112;11.622;2024-03-06T11:36:27;6.10;99.90
9658;DHT22;4867;48.112;11.622;2024-03-06T11:39:06;6.10;99.90
9658;DHT22;4867;48.112;11.622;2024-03-06T11:44:05;6.20;99.90
9658;DHT22;4867;48.112;11.622;2024-03-06T11:49:27;6.10;99.90
9658;DHT22;4867;48.112;11.622;2024-03-06T11:52:06;6.10;99.90
9658;DHT22;4867;48.112;11.622;2024-03-06T11:54:35;6.20;99.90
9658;DHT22;4867;48.112;11.622;2024-03-06T11:57:06;6.20;99.90
9658;DHT22;4867;48.112;11.622;2024-03-06T11:59:36;6.20;99.90
9658;DHT22;4867;48.112;11.622;2024-03-06T12:02:07;6.20;99.90
9658;DHT22;4867;48.112;11.622;2024-03-06T12:04:35;6.20;99.90
9658;DHT22;4867;48.112;11.622;2024-03-06T12:07:09;6.10;99.90
9658;DHT22;4867;48.112;11.622;2024-03-06T12:09:38;6.10;99.90
9658;DHT22;4867;48.112;11.622;2024-03-06T12:12:10;6.10;99.90
9658;DHT22;4867;48.112;11.622;2024-03-06T12:14:40;6.20;99.90
9658;DHT22;4867;48.112;11.622;2024-03-06T12:17:12;6.20;99.90
9658;DHT22;4867;48.112;11.622;2024-03-06T12:19:58;6.20;99.90
9658;DHT22;4867;48.112;11.622;2024-03-06T12:22:26;6.20;99.90
9658;DHT22;4867;48.112;11.622;2024-03-06T12:24:59;6.30;99.90
9658;DHT22;4867;48.112;11.622;2024-03-06T12:27:28;6.40;99.90
9658;DHT22;4867;48.112;11.622;2024-03-06T12:29:56;6.50;99.90
9658;DHT22;4867;48.112;11.622;2024-03-06T12:32:23;6.50;99.90
9658;DHT22;4867;48.112;11.622;2024-03-06T12:34:59;6.50;99.90
9658;DHT22;4867;48.112;11.622;2024-03-06T12:37:30;6.60;99.90
9658;DHT22;4867;48.112;11.622;2024-03-06T12:40:03;6.60;99.90
9658;DHT22;4867;48.112;11.622;2024-03-06T12:42:43;6.60;99.90
9658;DHT22;4867;48.112;11.622;2024-03-06T12:45:13;6.60;99.90
9658;DHT22;4867;48.112;11.622;2024-03-06T12:47:54;6.60;99.90
9658;DHT22;4867;48.112;11.622;2024-03-06T12:50:28;6.60;99.90
9658;DHT22;4867;48.112;11.622;2024-03-06T12:53:02;6.60;99.90
9658;DHT22;4867;48.112;11.622;2024-03-06T12:55:44;6.70;99.90
9658;DHT22;4867;48.112;11.622;2024-03-06T12:58:53;6.70;99.90
9658;DHT22;4867;48.112;11.622;2024-03-06T13:01:21;6.70;99.90
9658;DHT22;4867;48.112;11.622;2024-03-06T13:03:52;6.70;99.90
9658;DHT22;4867;48.112;11.622;2024-03-06T13:06:20;6.70;99.90
9658;DHT22;4867;48.112;11.622;2024-03-06T13:08:52;6.70;99.90
9658;DHT22;4867;48.112;11.622;2024-03-06T13:11:20;6.60;99.90
9658;DHT22;4867;48.112;11.622;2024-03-06T13:13:48;6.60;99.90
9658;DHT22;4867;48.112;11.622;2024-03-06T13:16:16;6.60;99.90
9658;DHT22;4867;48.112;11.622;2024-03-06T13:18:44;6.60;99.90
9658;DHT22;4867;48.112;11.622;2024-03-06T13:21:13;6.60;99.90
9658;DHT22;4867;48.112;11.622;2024-03-06T13:23:49;6.50;99.90
9658;DHT22;4867;48.112;11.622;2024-03-06T13:26:20;6.50;99.90
9658;DHT22;4867;48.112;11.622;2024-03-06T13:28:52;6.40;99.90
9658;DHT22;4867;48.112;11.622;2024-03-06T13:31:19;6.40;99.90
9658;DHT22;4867;48.112;11.622;2024-03-06T13:33:46;6.50;99.90
9658;DHT22;4867;48.112;11.622;2024-03-06T13:36:16;6.50;99.90
9658;DHT22;4867;48.112;11.622;2024-03-06T13:38:44;6.60;99.90
9658;DHT22;4867;48.112;11.622;2024-03-06T13:41:12;6.50;99.90
9658;DHT22;4867;48.112;11.622;2024-03-06T13:43:40;6.60;99.90
9658;DHT22;4867;48.112;11.622;2024-03-06T13:46:08;6.60;99.90
9658;DHT22;4867;48.112;11.622;2024-03-06T13:48:38;6.60;99.90
9658;DHT22;4867;48.112;11.622;2024-03-06T13:51:06;6.70;99.90
9658;DHT22;4867;48.112;11.622;2024-03-06T13:53:34;6.80;99.90
9658;DHT22;4867;48.112;11.622;2024-03-06T13:56:02;6.90;99.90
9658;DHT22;4867;48.112;11.622;2024-03-06T13:58:30;6.90;99.90
9658;DHT22;4867;48.112;11.622;2024-03-06T14:00:57;6.90;99.90
9658;DHT22;4867;48.112;11.622;2024-03-06T14:03:27;6.80;99.90
9658;DHT22;4867;48.112;11.622;2024-03-06T14:05:55;6.70;99.90
9658;DHT22;4867;48.112;11.622;2024-03-06T14:08:23;6.60;99.90
9658;DHT22;4867;48.112;11.622;2024-03-06T14:10:52;6.50;99.90
9658;DHT22;4867;48.112;11.622;2024-03-06T14:13:21;6.40;99.90
9658;DHT22;4867;48.112;11.622;2024-03-06T14:15:48;6.40;99.90
9658;DHT22;4867;48.112;11.622;2024-03-06T14:18:16;6.40;99.90
9658;DHT22;4867;48.112;11.622;2024-03-06T14:20:45;6.30;99.90
9658;DHT22;4867;48.112;11.622;2024-03-06T14:23:14;6.30;99.90
9658;DHT22;4867;48.112;11.622;2024-03-06T14:25:45;6.40;99.90
9658;DHT22;4867;48.112;11.622;2024-03-06T14:28:12;6.40;99.90
9658;DHT22;4867;48.112;11.622;2024-03-06T14:30:42;6.40;99.90
9658;DHT22;4867;48.112;11.622;2024-03-06T14:33:12;6.30;99.90
9658;DHT22;4867;48.112;11.622;2024-03-06T14:35:41;6.30;99.90
9658;DHT22;4867;48.112;11.622;2024-03-06T14:38:09;6.30;99.90
9658;DHT22;4867;48.112;11.622;2024-03-06T14:40:36;6.20;99.90
9658;DHT22;4867;48.112;11.622;2024-03-06T14:43:03;6.20;99.90
9658;DHT22;4867;48.112;11.622;2024-03-06T14:45:36;6.20;99.90
9658;DHT22;4867;48.112;11.622;2024-03-06T14:48:10;6.20;99.90
9658;DHT22;4867;48.112;11.622;2024-03-06T14:50:38;6.20;99.90
9658;DHT22;4867;48.112;11.622;2024-03-06T14:53:05;6.30;99.90
9658;DHT22;4867;48.112;11.622;2024-03-06T14:55:36;6.40;99.90
9658;DHT22;4867;48.112;11.622;2024-03-06T14:58:18;6.40;99.90
9658;DHT22;4867;48.112;11.622;2024-03-06T15:00:45;6.40;99.90
9658;DHT22;4867;48.112;11.622;2024-03-06T15:03:13;6.40;99.90
9658;DHT22;4867;48.112;11.622;2024-03-06T15:05:42;6.40;99.90
9658;DHT22;4867;48.112;11.622;2024-03-06T15:08:13;6.40;99.90
9658;DHT22;4867;48.112;11.622;2024-03-06T15:10:41;6.40;99.90
9658;DHT22;4867;48.112;11.622;2024-03-06T15:13:10;6.40;99.90
9658;DHT22;4867;48.112;11.622;2024-03-06T15:15:42;6.40;99.90
9658;DHT22;4867;48.112;11.622;2024-03-06T15:18:09;6.30;99.90
9658;DHT22;4867;48.112;11.622;2024-03-06T15:20:38;6.20;99.90
9658;DHT22;4867;48.112;11.622;2024-03-06T15:23:06;6.10;99.90
9658;DHT22;4867;48.112;11.622;2024-03-06T15:25:37;6.10;99.90
9658;DHT22;4867;48.112;11.622;2024-03-06T15:28:04;6.10;99.90
9658;DHT22;4867;48.112;11.622;2024-03-06T15:30:32;6.10;99.90
9658;DHT22;4867;48.112;11.622;2024-03-06T15:33:02;6.00;99.90
9658;DHT22;4867;48.112;11.622;2024-03-06T15:35:32;6.00;99.90
9658;DHT22;4867;48.112;11.622;2024-03-06T15:38:00;5.90;99.90
9658;DHT22;4867;48.112;11.622;2024-03-06T15:40:28;5.90;99.90
9658;DHT22;4867;48.112;11.622;2024-03-06T15:42:56;5.90;99.90
9658;DHT22;4867;48.112;11.622;2024-03-06T15:45:24;5.80;99.90
9658;DHT22;4867;48.112;11.622;2024-03-06T15:47:51;5.80;99.90
9658;DHT22;4867;48.112;11.622;2024-03-06T15:50:19;5.80;99.90
9658;DHT22;4867;48.112;11.622;2024-03-06T15:52:47;5.70;99.90
9658;DHT22;4867;48.112;11.622;2024-03-06T15:55:18;5.70;99.90
9658;DHT22;4867;48.112;11.622;2024-03-06T15:57:45;5.70;99.90
9658;DHT22;4867;48.112;11.622;2024-03-06T16:00:14;5.70;99.90
9658;DHT22;4867;48.112;11.622;2024-03-06T16:02:44;5.70;99.90
9658;DHT22;4867;48.112;11.622;2024-03-06T16:05:15;5.70;99.90
9658;DHT22;4867;48.112;11.622;2024-03-06T16:07:42;5.70;99.90
9658;DHT22;4867;48.112;11.622;2024-03-06T16:10:22;5.70;99.90
9658;DHT22;4867;48.112;11.622;2024-03-06T16:12:53;5.60;99.90
9658;DHT22;4867;48.112;11.622;2024-03-06T16:15:24;5.70;99.90
9658;DHT22;4867;48.112;11.622;2024-03-06T16:17:51;5.60;99.90
9658;DHT22;4867;48.112;11.622;2024-03-06T16:20:21;5.60;99.90
9658;DHT22;4867;48.112;11.622;2024-03-06T16:22:49;5.60;99.90
9658;DHT22;4867;48.112;11.622;2024-03-06T16:25:28;5.60;99.90
9658;DHT22;4867;48.112;11.622;2024-03-06T16:27:58;5.60;99.90
9658;DHT22;4867;48.112;11.622;2024-03-06T16:30:27;5.50;99.90
9658;DHT22;4867;48.112;11.622;2024-03-06T16:33:02;5.50;99.90
9658;DHT22;4867;48.112;11.622;2024-03-06T16:35:37;5.50;99.90
9658;DHT22;4867;48.112;11.622;2024-03-06T16:38:05;5.50;99.90
9658;DHT22;4867;48.112;11.622;2024-03-06T16:40:34;5.50;99.90
9658;DHT22;4867;48.112;11.622;2024-03-06T16:43:01;5.50;99.90
9658;DHT22;4867;48.112;11.622;2024-03-06T16:45:31;5.60;99.90
9658;DHT22;4867;48.112;11.622;2024-03-06T16:48:04;5.60;99.90